Time;durP1;ratioP1;P1;durP2;ratioP2;P2;SDS_P1;SDS_P2;PMS_P1;PMS_P2;Temp;Humidity;BMP_temperature;BMP_pressure;BME280_temperature;BME280_humidity;BME280_pressure;Samples;Min_cycle;Max_cycle;Signal;HPM_P1;HPM_P2
2023/07/28 00:00:37;;;;;;;3.70;3.40;;;17.30;99.90;;;;;;5065005;28;20177;-71
2023/07/28 00:03:03;;;;;;;5.50;3.10;;;17.30;99.90;;;;;;5056853;28;20193;-71
2023/07/28 00:05:28;;;;;;;3.50;3.20;;;17.20;99.90;;;;;;5063332;28;20180;-71
2023/07/28 00:07:54;;;;;;;3.53;3.23;;;17.30;99.90;;;;;;5063175;28;20646;-71
2023/07/28 00:10:20;;;;;;;3.70;3.40;;;17.30;99.90;;;;;;5062557;28;20274;-71
2023/07/28 00:12:45;;;;;;;3.70;3.40;;;17.30;99.90;;;;;;5061670;28;20706;-71
2023/07/28 00:15:11;;;;;;;4.10;3.50;;;17.30;99.90;;;;;;5061084;28;20184;-71
2023/07/28 00:17:37;;;;;;;4.23;3.30;;;17.30;99.90;;;;;;5058438;28;20349;-71
2023/07/28 00:20:03;;;;;;;4.00;3.60;;;17.30;99.90;;;;;;5061137;28;20192;-71
2023/07/28 00:22:29;;;;;;;4.40;3.47;;;17.30;99.90;;;;;;5063942;28;20192;-72
2023/07/28 00:24:54;;;;;;;6.03;3.30;;;17.20;99.90;;;;;;5059689;28;21030;-71
2023/07/28 00:27:20;;;;;;;3.63;3.30;;;17.20;99.90;;;;;;5060867;28;20568;-71
2023/07/28 00:29:46;;;;;;;4.03;3.23;;;17.20;99.90;;;;;;5065043;28;20196;-71
2023/07/28 00:32:11;;;;;;;3.60;3.30;;;17.20;99.90;;;;;;5061535;28;20215;-71
2023/07/28 00:34:37;;;;;;;3.10;2.80;;;17.20;99.90;;;;;;5065341;28;20268;-71
2023/07/28 00:37:03;;;;;;;3.13;2.83;;;17.20;99.90;;;;;;5057317;28;20209;-71
2023/07/28 00:39:28;;;;;;;2.87;2.67;;;17.20;99.90;;;;;;5062488;28;20636;-71
2023/07/28 00:41:54;;;;;;;3.50;2.80;;;17.20;99.90;;;;;;5047539;28;20385;-71
2023/07/28 00:44:20;;;;;;;3.10;2.67;;;17.20;99.90;;;;;;5047140;28;20213;-71
2023/07/28 00:46:45;;;;;;;3.07;2.77;;;17.10;99.90;;;;;;5047151;28;20201;-71
2023/07/28 00:49:11;;;;;;;2.57;2.37;;;17.20;99.90;;;;;;5048780;28;20435;-71
2023/07/28 00:51:38;;;;;;;2.70;2.40;;;17.20;99.90;;;;;;5051426;28;20286;-71
2023/07/28 00:54:06;;;;;;;3.00;2.17;;;17.20;99.90;;;;;;5050966;28;20170;-71
2023/07/28 00:56:32;;;;;;;2.50;2.30;;;17.30;99.90;;;;;;5051133;28;20408;-71
2023/07/28 00:58:58;;;;;;;3.13;2.80;;;17.30;99.90;;;;;;5049829;28;20418;-71
2023/07/28 01:01:24;;;;;;;2.37;2.17;;;17.30;99.90;;;;;;5051443;28;20627;-71
2023/07/28 01:03:50;;;;;;;2.60;2.40;;;17.20;99.90;;;;;;5050977;28;20420;-71
2023/07/28 01:06:50;;;;;;;2.80;2.50;;;17.20;99.90;;;;;;5050803;28;20261;-72
2023/07/28 01:09:21;;;;;;;3.70;2.20;;;17.20;99.90;;;;;;5050926;28;20439;-71
2023/07/28 01:11:57;;;;;;;2.10;1.90;;;17.20;99.90;;;;;;5058157;28;20997;-71
2023/07/28 01:14:23;;;;;;;2.50;2.27;;;17.20;99.90;;;;;;5070334;28;20541;-72
2023/07/28 01:16:49;;;;;;;2.63;2.00;;;17.20;99.90;;;;;;5071115;28;20518;-71
2023/07/28 01:19:18;;;;;;;2.57;2.37;;;17.20;99.90;;;;;;5070819;28;20173;-71
2023/07/28 01:21:47;;;;;;;1.87;1.77;;;17.20;99.90;;;;;;5071095;28;20419;-71
2023/07/28 01:24:27;;;;;;;2.60;2.40;;;17.20;99.90;;;;;;5070763;28;20915;-71
2023/07/28 01:26:54;;;;;;;3.20;2.90;;;17.20;99.90;;;;;;5070879;28;20819;-71
2023/07/28 01:29:21;;;;;;;2.63;2.23;;;17.20;99.90;;;;;;5071035;28;20818;-71
2023/07/28 01:31:47;;;;;;;2.03;1.93;;;17.20;99.90;;;;;;5071404;28;20451;-72
2023/07/28 01:34:13;;;;;;;3.30;2.40;;;17.30;99.90;;;;;;5070510;28;20549;-72
2023/07/28 01:36:39;;;;;;;2.50;2.30;;;17.30;99.90;;;;;;5070818;28;21011;-72
2023/07/28 01:39:04;;;;;;;2.80;2.60;;;17.30;99.90;;;;;;5069445;28;20407;-72
2023/07/28 01:41:30;;;;;;;2.87;2.67;;;17.30;99.90;;;;;;5070826;28;20181;-72
2023/07/28 01:43:56;;;;;;;3.90;2.33;;;17.30;99.90;;;;;;5070702;28;20638;-72
2023/07/28 01:46:22;;;;;;;3.47;2.70;;;17.30;99.90;;;;;;5070321;28;20180;-72
2023/07/28 01:48:48;;;;;;;3.40;2.80;;;17.30;99.90;;;;;;5070773;28;20435;-72
2023/07/28 01:51:14;;;;;;;2.53;2.33;;;17.30;99.90;;;;;;5070158;28;20478;-72
2023/07/28 01:53:39;;;;;;;3.10;2.80;;;17.40;99.90;;;;;;5070175;28;20403;-72
2023/07/28 01:56:05;;;;;;;2.90;2.53;;;17.40;99.90;;;;;;5068693;28;20254;-72
2023/07/28 01:58:30;;;;;;;2.70;2.50;;;17.40;99.90;;;;;;5069421;28;20670;-72
2023/07/28 02:00:56;;;;;;;2.50;2.30;;;17.30;99.90;;;;;;5069779;28;20553;-72
2023/07/28 02:03:22;;;;;;;2.50;2.30;;;17.30;99.90;;;;;;5069866;28;20196;-72
2023/07/28 02:05:48;;;;;;;2.97;2.27;;;17.30;99.90;;;;;;5069596;28;20583;-72
2023/07/28 02:08:14;;;;;;;2.30;2.03;;;17.30;99.90;;;;;;5070016;28;20435;-72
2023/07/28 02:10:40;;;;;;;2.37;2.17;;;17.30;99.90;;;;;;5069924;28;20451;-72
2023/07/28 02:13:05;;;;;;;2.90;2.07;;;17.30;99.90;;;;;;5069928;28;20177;-72
2023/07/28 02:15:31;;;;;;;2.10;1.90;;;17.40;99.90;;;;;;5069060;28;20177;-72
2023/07/28 02:17:57;;;;;;;1.63;1.50;;;17.30;99.90;;;;;;5069850;28;20189;-72
2023/07/28 02:20:22;;;;;;;1.60;1.50;;;17.30;99.90;;;;;;5069933;28;20173;-72
2023/07/28 02:22:48;;;;;;;2.23;1.90;;;17.40;99.90;;;;;;5069677;28;20169;-72
2023/07/28 02:25:14;;;;;;;1.77;1.67;;;17.30;99.90;;;;;;5069113;28;20219;-72
2023/07/28 02:27:40;;;;;;;1.77;1.67;;;17.30;99.90;;;;;;5069225;28;20276;-72
2023/07/28 02:30:06;;;;;;;1.73;1.63;;;17.30;99.90;;;;;;5069351;28;20197;-72
2023/07/28 02:32:32;;;;;;;1.53;1.43;;;17.20;99.90;;;;;;5068078;28;20414;-72
2023/07/28 02:34:58;;;;;;;1.20;1.07;;;17.30;99.90;;;;;;5068967;28;20403;-72
2023/07/28 02:37:24;;;;;;;1.40;1.30;;;17.30;99.90;;;;;;5069298;28;20216;-72
2023/07/28 02:39:50;;;;;;;1.90;1.70;;;17.30;99.90;;;;;;5069300;28;20408;-72
2023/07/28 02:42:15;;;;;;;1.90;1.80;;;17.30;99.90;;;;;;5068863;28;20469;-72
2023/07/28 02:44:41;;;;;;;1.57;1.47;;;17.20;99.90;;;;;;5068371;28;20246;-72
2023/07/28 02:47:07;;;;;;;1.57;1.43;;;17.30;99.90;;;;;;5069172;28;20287;-72
2023/07/28 02:49:33;;;;;;;1.40;1.30;;;17.20;99.90;;;;;;5069566;28;20177;-72
2023/07/28 02:51:58;;;;;;;2.13;1.93;;;17.30;99.90;;;;;;5069021;28;20665;-73
2023/07/28 02:54:25;;;;;;;1.60;1.50;;;17.30;99.90;;;;;;5068654;28;20197;-72
2023/07/28 02:56:51;;;;;;;1.83;1.33;;;17.30;99.90;;;;;;5068732;28;20185;-72
2023/07/28 02:59:17;;;;;;;1.57;1.47;;;17.30;99.90;;;;;;5067036;28;21102;-72
2023/07/28 03:01:42;;;;;;;1.33;1.23;;;17.30;99.90;;;;;;5068775;28;20450;-72
2023/07/28 03:04:08;;;;;;;1.30;1.20;;;17.40;99.90;;;;;;5068450;28;20200;-73
2023/07/28 03:06:33;;;;;;;1.60;1.50;;;17.30;99.90;;;;;;5068439;28;20177;-73
2023/07/28 03:08:59;;;;;;;1.53;1.30;;;17.30;99.90;;;;;;5068993;28;20184;-72
2023/07/28 03:11:25;;;;;;;1.53;1.43;;;17.40;99.90;;;;;;5068906;28;20197;-73
2023/07/28 03:13:51;;;;;;;1.30;1.20;;;17.30;99.90;;;;;;5067492;28;20658;-72
2023/07/28 03:16:16;;;;;;;1.27;1.17;;;17.30;99.90;;;;;;5068148;28;20176;-73
2023/07/28 03:18:42;;;;;;;1.37;1.27;;;17.30;99.90;;;;;;5068700;28;20318;-73
2023/07/28 03:21:11;;;;;;;1.20;1.10;;;17.30;99.90;;;;;;5068434;28;20176;-72
2023/07/28 03:23:37;;;;;;;1.30;1.03;;;17.30;99.90;;;;;;5068207;28;20173;-72
2023/07/28 03:26:02;;;;;;;1.10;0.87;;;17.40;99.90;;;;;;5068249;28;20900;-73
2023/07/28 03:28:28;;;;;;;1.33;1.10;;;17.30;99.90;;;;;;5068100;28;20201;-73
2023/07/28 03:30:54;;;;;;;1.70;1.27;;;17.40;99.90;;;;;;5068156;28;20211;-72
2023/07/28 03:33:19;;;;;;;1.20;1.00;;;17.40;99.90;;;;;;5068346;28;20184;-73
2023/07/28 03:35:45;;;;;;;3.33;1.10;;;17.40;99.90;;;;;;5067673;28;20779;-72
2023/07/28 03:38:11;;;;;;;1.53;1.40;;;17.40;99.90;;;;;;5068355;28;20259;-72
2023/07/28 03:40:36;;;;;;;1.20;1.10;;;17.40;99.90;;;;;;5068022;28;20176;-73
2023/07/28 03:43:02;;;;;;;1.03;0.93;;;17.40;99.90;;;;;;5068481;28;20184;-72
2023/07/28 03:45:28;;;;;;;1.00;0.83;;;17.40;99.90;;;;;;5066266;28;20213;-72
2023/07/28 03:47:54;;;;;;;1.03;0.93;;;17.40;99.90;;;;;;5066931;28;20459;-73
2023/07/28 03:50:20;;;;;;;1.00;0.90;;;17.40;99.90;;;;;;5067937;28;20482;-72
2023/07/28 03:52:46;;;;;;;1.53;1.00;;;17.40;99.90;;;;;;5068122;28;20191;-72
2023/07/28 03:55:11;;;;;;;0.70;0.70;;;17.30;99.90;;;;;;5067547;28;20665;-72
2023/07/28 03:57:37;;;;;;;1.40;1.30;;;17.30;99.90;;;;;;5067581;28;20231;-72
2023/07/28 04:00:03;;;;;;;1.17;1.07;;;17.30;99.90;;;;;;5067321;28;20165;-73
2023/07/28 04:02:29;;;;;;;1.10;0.97;;;17.30;99.90;;;;;;5067356;28;20256;-73
2023/07/28 04:04:56;;;;;;;0.80;0.80;;;17.40;99.90;;;;;;5067426;28;20952;-72
2023/07/28 04:07:22;;;;;;;0.70;0.70;;;17.40;99.90;;;;;;5068042;28;20193;-72
2023/07/28 04:09:47;;;;;;;1.53;1.43;;;17.40;99.90;;;;;;5067966;28;20421;-72
2023/07/28 04:12:13;;;;;;;1.20;1.10;;;17.40;99.90;;;;;;5067900;28;20176;-72
2023/07/28 04:14:39;;;;;;;1.77;1.30;;;17.40;99.90;;;;;;5067293;28;20639;-72
2023/07/28 04:17:05;;;;;;;1.70;0.87;;;17.40;99.90;;;;;;5067639;28;20266;-72
2023/07/28 04:19:30;;;;;;;1.20;1.10;;;17.40;99.90;;;;;;5067826;28;20169;-71
2023/07/28 04:22:00;;;;;;;1.30;1.17;;;17.40;99.90;;;;;;5067609;28;20521;-72
2023/07/28 04:24:26;;;;;;;1.53;1.30;;;17.40;99.90;;;;;;5066791;28;20181;-72
2023/07/28 04:26:52;;;;;;;1.50;1.23;;;17.40;99.90;;;;;;5067265;28;20427;-72
2023/07/28 04:29:18;;;;;;;1.00;0.90;;;17.40;99.90;;;;;;5067475;28;20458;-72
2023/07/28 04:31:44;;;;;;;1.83;1.10;;;17.40;99.90;;;;;;5067707;28;20959;-72
2023/07/28 04:34:10;;;;;;;1.03;0.93;;;17.40;99.90;;;;;;5067190;28;20223;-72
2023/07/28 04:36:35;;;;;;;1.57;1.47;;;17.40;99.90;;;;;;5067465;28;20173;-72
2023/07/28 04:39:01;;;;;;;1.37;1.20;;;17.50;99.90;;;;;;5066179;28;20178;-72
2023/07/28 04:41:27;;;;;;;1.43;1.10;;;17.50;99.90;;;;;;5067678;28;20189;-72
2023/07/28 04:43:53;;;;;;;1.10;1.00;;;17.50;99.90;;;;;;5066118;28;20225;-72
2023/07/28 04:46:18;;;;;;;1.23;1.10;;;17.40;99.90;;;;;;5067246;28;20546;-72
2023/07/28 04:48:45;;;;;;;1.07;0.97;;;17.50;99.90;;;;;;5067431;28;20413;-72
2023/07/28 04:51:11;;;;;;;0.77;0.77;;;17.50;99.90;;;;;;5060491;28;20674;-72
2023/07/28 04:53:36;;;;;;;1.90;0.87;;;17.50;99.90;;;;;;5064108;28;20434;-72
2023/07/28 04:56:03;;;;;;;0.80;0.80;;;17.50;99.90;;;;;;5063185;28;21013;-72
2023/07/28 04:58:29;;;;;;;1.00;0.90;;;17.50;99.90;;;;;;5066083;28;20200;-72
2023/07/28 05:00:54;;;;;;;0.80;0.80;;;17.50;99.90;;;;;;5067030;28;20472;-71
2023/07/28 05:03:20;;;;;;;0.70;0.60;;;17.50;99.90;;;;;;5066849;28;20439;-72
2023/07/28 05:05:46;;;;;;;0.80;0.80;;;17.60;99.90;;;;;;5058794;28;20185;-72
2023/07/28 05:08:12;;;;;;;0.80;0.80;;;17.60;99.90;;;;;;5063360;28;20212;-71
2023/07/28 05:10:37;;;;;;;0.70;0.70;;;17.60;99.90;;;;;;5065365;28;20670;-71
2023/07/28 05:13:06;;;;;;;0.73;0.73;;;17.60;99.90;;;;;;5065271;28;20185;-72
2023/07/28 05:15:31;;;;;;;1.00;0.70;;;17.60;99.90;;;;;;5063471;28;20318;-71
2023/07/28 05:17:57;;;;;;;1.13;0.83;;;17.60;99.90;;;;;;5067147;28;20435;-71
2023/07/28 05:20:23;;;;;;;0.90;0.70;;;17.70;99.90;;;;;;5064043;28;20583;-71
2023/07/28 05:22:48;;;;;;;0.97;0.87;;;17.60;99.90;;;;;;5066915;28;20255;-71
2023/07/28 05:25:14;;;;;;;0.60;0.60;;;17.70;99.90;;;;;;5066623;28;20272;-71
2023/07/28 05:27:40;;;;;;;1.57;1.20;;;17.70;99.90;;;;;;5065694;28;20262;-71
2023/07/28 05:30:06;;;;;;;1.60;1.00;;;17.70;99.90;;;;;;5066697;28;20173;-71
2023/07/28 05:32:32;;;;;;;0.90;0.80;;;17.70;99.90;;;;;;5065259;28;20613;-72
2023/07/28 05:34:58;;;;;;;1.20;1.10;;;17.70;99.90;;;;;;5064370;28;20419;-72
2023/07/28 05:37:24;;;;;;;2.00;1.20;;;17.70;99.90;;;;;;5068462;28;20197;-72
2023/07/28 05:39:49;;;;;;;1.13;0.93;;;17.80;99.90;;;;;;5070426;28;20650;-71
2023/07/28 05:42:15;;;;;;;2.00;1.27;;;17.80;99.90;;;;;;5069423;28;20415;-72
2023/07/28 05:44:41;;;;;;;1.37;1.27;;;17.80;99.90;;;;;;5070145;28;20307;-73
2023/07/28 05:47:07;;;;;;;1.40;1.30;;;17.90;99.90;;;;;;5070764;28;20205;-71
2023/07/28 05:49:32;;;;;;;1.30;1.20;;;17.90;99.90;;;;;;5070729;28;20195;-72
2023/07/28 05:51:58;;;;;;;1.97;1.40;;;17.90;99.90;;;;;;5068727;28;20220;-71
2023/07/28 05:54:24;;;;;;;1.70;1.60;;;17.90;99.90;;;;;;5070248;28;20185;-72
2023/07/28 05:56:49;;;;;;;1.57;1.40;;;17.90;99.90;;;;;;5069861;28;20196;-72
2023/07/28 05:59:15;;;;;;;1.53;1.30;;;18.00;99.90;;;;;;5067305;28;20239;-72
2023/07/28 06:01:41;;;;;;;1.60;1.50;;;18.00;99.90;;;;;;5069662;28;20216;-72
2023/07/28 06:04:07;;;;;;;1.50;1.40;;;18.00;99.90;;;;;;5069675;28;20858;-72
2023/07/28 06:06:33;;;;;;;2.10;1.90;;;18.00;99.90;;;;;;5070004;28;20200;-72
2023/07/28 06:08:58;;;;;;;3.77;2.27;;;18.00;99.90;;;;;;5069824;28;20412;-72
2023/07/28 06:11:24;;;;;;;2.53;2.33;;;18.00;99.90;;;;;;5070049;28;20232;-72
2023/07/28 06:13:50;;;;;;;3.10;2.47;;;18.10;99.90;;;;;;5069614;28;20173;-72
2023/07/28 06:16:16;;;;;;;4.63;3.13;;;18.00;99.90;;;;;;5067200;28;20785;-72
2023/07/28 06:18:42;;;;;;;3.00;2.33;;;18.00;99.90;;;;;;5067109;28;20250;-72
2023/07/28 06:21:08;;;;;;;3.30;3.00;;;18.00;99.90;;;;;;5067895;28;20603;-72
2023/07/28 06:23:33;;;;;;;3.93;3.40;;;18.00;99.90;;;;;;5067756;28;20435;-72
2023/07/28 06:25:59;;;;;;;3.00;2.70;;;18.00;99.90;;;;;;5068663;28;20185;-72
2023/07/28 06:28:25;;;;;;;3.10;2.53;;;18.00;99.90;;;;;;5064212;28;20928;-72
2023/07/28 06:30:58;;;;;;;2.07;1.67;;;17.90;99.90;;;;;;5065083;28;20212;-72
2023/07/28 06:33:25;;;;;;;1.60;1.50;;;18.00;99.90;;;;;;5067457;28;20264;-72
2023/07/28 06:35:52;;;;;;;2.63;1.73;;;17.90;99.90;;;;;;5067421;28;20900;-72
2023/07/28 06:38:17;;;;;;;1.50;1.40;;;17.90;99.90;;;;;;5069107;28;20428;-72
2023/07/28 06:40:43;;;;;;;1.50;1.40;;;18.00;99.90;;;;;;5069345;28;20415;-72
2023/07/28 06:43:09;;;;;;;2.77;2.43;;;18.00;99.90;;;;;;5068711;28;20181;-72
2023/07/28 06:45:35;;;;;;;3.50;3.20;;;18.00;99.90;;;;;;5068514;28;20185;-72
2023/07/28 06:48:00;;;;;;;4.37;2.70;;;18.00;99.90;;;;;;5068963;28;20678;-72
2023/07/28 06:50:26;;;;;;;4.50;4.10;;;18.00;99.90;;;;;;5068885;28;20715;-73
2023/07/28 06:52:52;;;;;;;4.73;4.30;;;18.00;99.90;;;;;;5069397;28;20181;-71
2023/07/28 06:55:18;;;;;;;6.70;5.53;;;18.10;99.90;;;;;;5068221;28;20522;-71
2023/07/28 06:57:44;;;;;;;6.73;5.60;;;18.00;99.90;;;;;;5069066;28;20218;-71
2023/07/28 07:00:10;;;;;;;7.70;6.60;;;18.00;99.90;;;;;;5068864;28;20407;-72
2023/07/28 07:02:36;;;;;;;7.30;5.90;;;18.00;99.90;;;;;;5069017;28;20205;-72
2023/07/28 07:05:02;;;;;;;6.37;4.80;;;18.10;99.90;;;;;;5068640;28;21018;-71
2023/07/28 07:07:28;;;;;;;6.27;4.97;;;18.00;99.90;;;;;;5068577;28;20208;-72
2023/07/28 07:09:53;;;;;;;5.83;5.00;;;18.00;99.90;;;;;;5068895;28;20807;-71
2023/07/28 07:12:21;;;;;;;5.40;4.90;;;18.10;99.90;;;;;;5068873;28;20645;-72
2023/07/28 07:14:47;;;;;;;5.53;4.97;;;18.10;99.90;;;;;;5067607;28;20264;-71
2023/07/28 07:17:13;;;;;;;5.13;4.63;;;18.10;99.90;;;;;;5068536;28;20419;-72
2023/07/28 07:19:39;;;;;;;6.60;5.00;;;18.10;99.90;;;;;;5068303;28;20404;-72
2023/07/28 07:22:05;;;;;;;5.30;4.80;;;18.20;99.90;;;;;;5067044;28;21116;-72
2023/07/28 07:24:31;;;;;;;5.97;5.30;;;18.10;99.90;;;;;;5067356;28;20173;-72
2023/07/28 07:26:57;;;;;;;4.97;4.57;;;18.20;99.90;;;;;;5068073;28;20460;-72
2023/07/28 07:29:23;;;;;;;6.23;5.60;;;18.20;99.90;;;;;;5068197;28;20415;-72
2023/07/28 07:31:49;;;;;;;6.20;5.60;;;18.10;99.90;;;;;;5067012;28;20287;-72
2023/07/28 07:34:14;;;;;;;5.90;5.30;;;18.20;99.90;;;;;;5067729;28;20174;-72
2023/07/28 07:36:40;;;;;;;5.70;5.10;;;18.20;99.90;;;;;;5067616;28;20268;-72
2023/07/28 07:39:06;;;;;;;4.90;4.40;;;18.20;99.90;;;;;;5068068;28;20165;-72
2023/07/28 07:41:31;;;;;;;5.87;5.27;;;18.20;99.90;;;;;;5068356;28;20188;-71
2023/07/28 07:43:57;;;;;;;8.63;6.33;;;18.20;99.90;;;;;;5067362;28;20176;-72
2023/07/28 07:46:23;;;;;;;7.57;6.30;;;18.30;99.90;;;;;;5067608;28;20176;-71
2023/07/28 07:48:49;;;;;;;7.93;6.57;;;18.30;99.90;;;;;;5067759;28;20177;-72
2023/07/28 07:51:16;;;;;;;9.00;7.63;;;18.40;99.90;;;;;;5067944;28;20459;-72
2023/07/28 07:53:42;;;;;;;12.77;10.20;;;18.40;99.90;;;;;;5067403;28;20411;-72
2023/07/28 07:56:09;;;;;;;12.90;11.10;;;18.50;99.90;;;;;;5067850;28;21033;-72
2023/07/28 07:58:35;;;;;;;15.97;12.87;;;18.50;99.90;;;;;;5066954;28;20736;-72
2023/07/28 08:01:00;;;;;;;13.87;11.30;;;18.50;99.90;;;;;;5067836;28;20411;-72
2023/07/28 08:03:27;;;;;;;17.60;13.23;;;18.50;99.90;;;;;;5065632;28;20201;-72
2023/07/28 08:05:52;;;;;;;16.70;13.27;;;18.50;99.90;;;;;;5065592;28;20595;-72
2023/07/28 08:08:19;;;;;;;16.60;13.97;;;18.50;99.90;;;;;;5066886;28;20439;-72
2023/07/28 08:10:47;;;;;;;19.37;15.70;;;18.50;99.90;;;;;;5067774;28;20200;-72
2023/07/28 08:13:12;;;;;;;18.43;15.60;;;18.60;99.90;;;;;;5066659;28;20419;-72
2023/07/28 08:15:38;;;;;;;18.50;15.33;;;18.60;99.90;;;;;;5067115;28;20469;-72
2023/07/28 08:18:04;;;;;;;11.80;9.83;;;18.70;99.90;;;;;;5067687;28;20424;-73
2023/07/28 08:20:30;;;;;;;9.97;8.37;;;18.70;99.90;;;;;;5067746;28;20244;-73
2023/07/28 08:22:55;;;;;;;7.17;6.47;;;18.70;99.90;;;;;;5067767;28;20268;-73
2023/07/28 08:25:22;;;;;;;7.90;6.30;;;18.70;99.90;;;;;;5067237;28;20646;-73
2023/07/28 08:27:48;;;;;;;5.00;4.30;;;18.80;99.90;;;;;;5067656;28;20421;-72
2023/07/28 08:30:15;;;;;;;3.20;2.80;;;18.80;99.90;;;;;;5067491;28;20878;-73
2023/07/28 08:32:41;;;;;;;3.10;2.80;;;18.80;99.90;;;;;;5067875;28;20674;-73
2023/07/28 08:35:08;;;;;;;3.50;3.03;;;18.90;99.90;;;;;;5067277;28;20415;-73
2023/07/28 08:37:33;;;;;;;2.77;2.57;;;19.00;99.90;;;;;;5067447;28;20935;-73
2023/07/28 08:39:59;;;;;;;3.10;2.70;;;19.00;99.90;;;;;;5067679;28;20411;-73
2023/07/28 08:42:25;;;;;;;4.10;3.10;;;19.00;99.90;;;;;;5067641;28;20177;-72
2023/07/28 08:44:52;;;;;;;3.20;2.10;;;19.00;99.90;;;;;;5067095;28;20173;-73
2023/07/28 08:47:18;;;;;;;3.57;3.27;;;19.00;99.90;;;;;;5067277;28;20562;-73
2023/07/28 08:49:44;;;;;;;2.93;2.63;;;19.00;99.90;;;;;;5067480;28;20416;-72
2023/07/28 08:52:10;;;;;;;3.27;2.97;;;19.00;99.90;;;;;;5067353;28;20898;-72
2023/07/28 08:54:36;;;;;;;3.40;2.70;;;19.00;99.90;;;;;;5066781;28;20770;-72
2023/07/28 08:57:02;;;;;;;4.60;3.30;;;19.00;99.90;;;;;;5067229;28;20204;-73
2023/07/28 08:59:29;;;;;;;3.27;2.93;;;19.00;99.90;;;;;;5066347;28;20226;-72
2023/07/28 09:02:00;;;;;;;2.43;2.23;;;19.00;99.90;;;;;;5067376;28;20408;-73
2023/07/28 09:04:26;;;;;;;3.37;3.07;;;19.10;99.90;;;;;;5066679;28;20431;-73
2023/07/28 09:06:52;;;;;;;3.67;3.37;;;19.00;99.90;;;;;;5067208;28;20437;-73
2023/07/28 09:09:22;;;;;;;3.90;2.87;;;19.10;99.90;;;;;;5067280;28;20420;-72
2023/07/28 09:11:50;;;;;;;2.80;2.20;;;19.10;99.90;;;;;;5071065;28;20643;-72
2023/07/28 09:14:19;;;;;;;1.97;1.77;;;19.10;99.90;;;;;;5070705;28;20422;-73
2023/07/28 09:16:46;;;;;;;5.30;2.40;;;19.20;99.90;;;;;;5070813;28;21115;-73
2023/07/28 09:19:12;;;;;;;2.00;1.80;;;19.20;99.90;;;;;;5063945;28;20435;-73
2023/07/28 09:21:40;;;;;;;1.57;1.47;;;19.20;99.90;;;;;;5069805;28;20475;-72
2023/07/28 09:24:11;;;;;;;1.23;1.13;;;19.20;99.90;;;;;;5068297;28;20411;-72
2023/07/28 09:26:44;;;;;;;1.63;1.13;;;19.30;99.90;;;;;;5069329;28;20419;-72
2023/07/28 09:29:23;;;;;;;1.47;1.30;;;19.40;99.90;;;;;;5070691;28;20498;-72
2023/07/28 09:31:50;;;;;;;1.40;0.83;;;19.40;99.90;;;;;;5070603;28;20534;-72
2023/07/28 09:34:26;;;;;;;1.43;0.90;;;19.40;99.90;;;;;;5069644;28;20414;-72
2023/07/28 09:36:56;;;;;;;1.40;1.30;;;19.40;99.90;;;;;;5069901;28;20422;-72
2023/07/28 09:39:23;;;;;;;1.40;1.30;;;19.50;99.90;;;;;;5069701;28;20416;-72
2023/07/28 09:41:48;;;;;;;2.33;1.63;;;19.60;99.90;;;;;;5070581;28;20757;-72
2023/07/28 09:44:15;;;;;;;1.77;1.63;;;19.80;99.90;;;;;;5070234;28;20422;-72
2023/07/28 09:46:56;;;;;;;1.40;1.30;;;19.90;99.90;;;;;;5070146;28;20201;-72
2023/07/28 09:49:36;;;;;;;1.60;1.50;;;20.00;99.90;;;;;;5070605;28;20468;-72
2023/07/28 09:52:08;;;;;;;2.03;1.67;;;20.00;99.90;;;;;;5069976;28;20461;-72
2023/07/28 09:54:40;;;;;;;1.90;1.33;;;20.00;99.90;;;;;;5069837;28;20465;-72
2023/07/28 09:57:19;;;;;;;3.50;1.43;;;20.00;99.90;;;;;;5068685;28;20442;-72
2023/07/28 09:59:46;;;;;;;3.27;2.47;;;20.00;99.90;;;;;;5067914;28;20819;-72
2023/07/28 10:02:12;;;;;;;3.37;2.73;;;20.10;99.90;;;;;;5070024;28;20978;-72
2023/07/28 10:04:39;;;;;;;3.27;2.70;;;20.20;99.90;;;;;;5069013;28;20435;-72
2023/07/28 10:07:07;;;;;;;2.73;2.47;;;20.30;99.90;;;;;;5068738;28;20430;-72
2023/07/28 10:09:33;;;;;;;3.40;2.50;;;20.30;99.90;;;;;;5069948;28;20871;-72
2023/07/28 10:12:01;;;;;;;3.00;2.70;;;20.40;99.90;;;;;;5069690;28;20856;-72
2023/07/28 10:14:34;;;;;;;2.90;2.67;;;20.40;99.90;;;;;;5069486;28;20479;-72
2023/07/28 10:17:04;;;;;;;3.03;2.73;;;20.40;99.90;;;;;;5069868;28;20438;-72
2023/07/28 10:19:36;;;;;;;2.70;2.50;;;20.30;99.90;;;;;;5069865;28;20777;-72
2023/07/28 10:22:10;;;;;;;3.07;2.80;;;20.30;99.90;;;;;;5068199;28;20408;-72
2023/07/28 10:24:56;;;;;;;2.90;2.47;;;20.20;99.90;;;;;;5069411;28;20480;-72
2023/07/28 10:27:46;;;;;;;3.47;2.60;;;20.30;99.90;;;;;;5069697;28;20431;-72
2023/07/28 10:30:15;;;;;;;2.63;2.43;;;20.30;99.90;;;;;;5070140;28;20442;-72
2023/07/28 10:32:43;;;;;;;3.70;2.90;;;20.30;99.90;;;;;;5069721;28;20416;-72
2023/07/28 10:35:27;;;;;;;3.40;3.10;;;20.30;99.90;;;;;;5069474;28;20876;-72
2023/07/28 10:37:58;;;;;;;7.03;4.90;;;20.30;99.90;;;;;;5050850;28;20455;-72
2023/07/28 10:40:24;;;;;;;5.97;5.37;;;20.40;99.90;;;;;;5061462;28;20811;-72
2023/07/28 10:42:51;;;;;;;7.50;6.13;;;20.40;99.90;;;;;;5065453;28;20418;-72
2023/07/28 10:45:17;;;;;;;7.30;6.33;;;20.40;99.90;;;;;;5060139;28;20181;-72
2023/07/28 10:47:43;;;;;;;5.53;5.03;;;20.50;99.90;;;;;;5063814;28;20974;-72
2023/07/28 10:50:09;;;;;;;4.53;4.13;;;20.50;99.90;;;;;;5065400;28;20554;-72
2023/07/28 10:52:40;;;;;;;3.77;3.43;;;20.70;99.90;;;;;;5062173;28;20422;-72
2023/07/28 10:55:20;;;;;;;4.47;4.03;;;20.60;99.90;;;;;;5063458;28;20438;-72
2023/07/28 10:57:46;;;;;;;4.17;3.77;;;20.60;99.90;;;;;;5060694;28;20522;-72
2023/07/28 11:00:14;;;;;;;4.27;3.87;;;20.70;99.90;;;;;;5059768;28;20544;-72
2023/07/28 11:02:49;;;;;;;3.90;3.60;;;20.70;99.90;;;;;;5065516;28;20775;-72
2023/07/28 11:05:21;;;;;;;4.43;3.93;;;20.80;99.90;;;;;;5059712;28;20795;-72
2023/07/28 11:07:48;;;;;;;3.90;3.33;;;20.80;99.90;;;;;;5064051;28;20436;-72
2023/07/28 11:10:15;;;;;;;3.90;3.57;;;20.80;99.90;;;;;;5061978;28;20477;-72
2023/07/28 11:12:44;;;;;;;3.57;3.27;;;20.80;99.90;;;;;;5062627;28;20963;-72
2023/07/28 11:15:11;;;;;;;8.60;3.13;;;20.70;99.90;;;;;;5063994;28;20908;-72
2023/07/28 11:17:39;;;;;;;3.10;2.90;;;20.70;99.90;;;;;;5061019;28;20428;-72
2023/07/28 11:20:19;;;;;;;3.40;3.10;;;20.60;99.90;;;;;;5063903;28;20846;-72
2023/07/28 11:22:46;;;;;;;2.77;2.57;;;20.70;99.90;;;;;;5057530;28;20940;-72
2023/07/28 11:25:12;;;;;;;3.27;2.40;;;20.80;99.90;;;;;;5063055;28;20408;-72
2023/07/28 11:27:39;;;;;;;3.10;2.80;;;20.90;99.90;;;;;;5061780;28;20423;-72
2023/07/28 11:30:09;;;;;;;2.63;2.43;;;21.00;99.90;;;;;;5064282;28;20926;-72
2023/07/28 11:32:36;;;;;;;2.93;2.73;;;21.10;99.90;;;;;;5063290;28;20426;-72
2023/07/28 11:35:06;;;;;;;2.97;2.77;;;21.20;99.90;;;;;;5060842;28;20785;-72
2023/07/28 11:37:37;;;;;;;3.60;2.50;;;21.30;99.90;;;;;;5060649;28;20481;-72
2023/07/28 11:40:06;;;;;;;2.00;1.90;;;21.20;99.90;;;;;;5064844;28;20443;-72
2023/07/28 11:42:40;;;;;;;2.57;2.37;;;21.20;99.90;;;;;;5068232;28;20400;-72
2023/07/28 11:45:07;;;;;;;3.40;2.23;;;21.20;99.90;;;;;;5062026;28;20444;-72
2023/07/28 11:47:33;;;;;;;2.90;2.37;;;21.10;99.90;;;;;;5060755;28;20431;-73
2023/07/28 11:50:00;;;;;;;2.73;1.97;;;21.10;99.90;;;;;;5060515;28;20416;-72
2023/07/28 11:52:32;;;;;;;2.50;2.30;;;21.00;99.90;;;;;;5051747;28;20944;-72
2023/07/28 11:55:02;;;;;;;2.23;2.13;;;21.00;99.90;;;;;;5057430;28;20408;-72
2023/07/28 11:57:30;;;;;;;5.00;2.50;;;20.90;99.90;;;;;;5061221;28;20439;-72
2023/07/28 11:59:57;;;;;;;2.37;2.17;;;20.90;99.90;;;;;;5056313;28;20933;-72
2023/07/28 12:02:30;;;;;;;2.50;2.30;;;20.90;99.90;;;;;;5064812;28;20465;-72
2023/07/28 12:04:58;;;;;;;2.60;2.07;;;20.90;99.90;;;;;;5062607;28;20419;-72
2023/07/28 12:07:33;;;;;;;2.30;2.10;;;20.90;99.90;;;;;;5062189;28;20792;-72
2023/07/28 12:10:08;;;;;;;2.43;1.93;;;20.90;99.90;;;;;;5062338;28;20411;-72
2023/07/28 12:12:47;;;;;;;2.27;2.07;;;21.00;99.90;;;;;;5062066;28;20813;-72
2023/07/28 12:15:29;;;;;;;2.67;2.23;;;20.90;99.90;;;;;;5062368;28;20699;-72
2023/07/28 12:18:10;;;;;;;2.60;2.40;;;21.00;99.90;;;;;;5062879;28;20504;-72
2023/07/28 12:20:49;;;;;;;2.27;2.07;;;20.90;99.90;;;;;;5059592;28;20435;-72
2023/07/28 12:23:20;;;;;;;2.97;2.20;;;21.00;99.90;;;;;;5064189;28;20429;-72
2023/07/28 12:25:47;;;;;;;2.10;1.97;;;21.00;99.90;;;;;;5055410;28;20431;-72
2023/07/28 12:28:13;;;;;;;2.20;2.10;;;21.00;99.90;;;;;;5062691;28;20435;-72
2023/07/28 12:30:39;;;;;;;1.93;1.83;;;21.00;99.90;;;;;;5066529;28;20508;-72
2023/07/28 12:33:05;;;;;;;2.20;2.00;;;21.10;99.90;;;;;;5063435;28;20423;-72
2023/07/28 12:35:34;;;;;;;1.63;1.20;;;21.10;99.90;;;;;;5058287;28;20797;-72
2023/07/28 12:38:01;;;;;;;1.60;1.50;;;21.20;99.90;;;;;;5062021;28;20470;-72
2023/07/28 12:40:29;;;;;;;1.43;1.30;;;21.40;99.90;;;;;;5062663;28;20423;-72
2023/07/28 12:42:55;;;;;;;1.50;1.40;;;21.50;99.90;;;;;;5055476;28;20942;-72
2023/07/28 12:45:21;;;;;;;1.40;1.17;;;21.60;99.90;;;;;;5061765;28;20581;-72